This is the latest recevied weather packets stored in our database for station/object IT9CYW-10. If no packets are shown the sender has not sent any weather packets the latest 10 day(s).
| Time | Temp. | Humidity | Pressure | Rain* | Wind** | Luminosity | Snow |
|---|---|---|---|---|---|---|---|
| 1777811290 | 21.67° C | 37% | 1001.5 hPa | - | - | 825 W/m² | - |
| 1777810390 | 21.11° C | 39% | 1001.5 hPa | - | - | 837 W/m² | - |
| 1777809490 | 21.11° C | 38% | 1001.7 hPa | - | - | 787 W/m² | - |
| 1777808590 | 21.67° C | 37% | 1002 hPa | - | - | 787 W/m² | - |
| 1777806795 | 21.67° C | 39% | 1001.7 hPa | - | - | 842 W/m² | - |
| 1777805895 | 20° C | 42% | 1001.7 hPa | - | - | 949 W/m² | - |
| 1777804995 | 20.56° C | 43% | 1001.9 hPa | - | - | 709 W/m² | - |
| 1777804095 | 20.56° C | 39% | 1002 hPa | - | - | 688 W/m² | - |
| 1777803195 | 21.11° C | 39% | 1002.2 hPa | - | - | 824 W/m² | - |
| 1777802294 | 20° C | 41% | 1002.2 hPa | - | - | 868 W/m² | - |
| 1777801394 | 20° C | 40% | 1002.2 hPa | - | - | 831 W/m² | - |
| 1777800494 | 21.11° C | 38% | 1002.2 hPa | - | - | 765 W/m² | - |
| 1777799593 | 20.56° C | 40% | 1002.5 hPa | - | - | 806 W/m² | - |
| 1777798693 | 20.56° C | 39% | 1002.5 hPa | - | - | 698 W/m² | - |
| 1777797793 | 20° C | 42% | 1002.5 hPa | - | - | 740 W/m² | - |
| 1777796893 | 20° C | 41% | 1002.5 hPa | - | - | 718 W/m² | - |
| 1777795993 | 18.89° C | 43% | 1002.5 hPa | - | - | 666 W/m² | - |
| 1777795093 | 18.89° C | 43% | 1002.4 hPa | - | - | 606 W/m² | - |
| 1777794192 | 18.33° C | 43% | 1002.5 hPa | - | - | 530 W/m² | - |
| 1777793292 | 18.33° C | 42% | 1002.5 hPa | - | - | 466 W/m² | - |
| 1777792392 | 17.78° C | 44% | 1002.4 hPa | - | - | 476 W/m² | - |
| 1777791492 | 17.78° C | 45% | 1002.5 hPa | - | - | 423 W/m² | - |
| 1777790592 | 17.78° C | 47% | 1002.5 hPa | - | - | 357 W/m² | - |
| 1777789692 | 17.22° C | 51% | 1002.5 hPa | - | - | 293 W/m² | - |
| 1777788792 | 17.22° C | 56% | 1002.5 hPa | - | - | 242 W/m² | - |
* Rain since midnight (hover to see other rain measurements)
** Current wind speed in m/s (hover to see current wind gust speed)